WetterOnline ( https://www.wetteronline.de )

Wetter aktuell Goldberg

Aktuelles Wetter: Goldberg (58m)

6-stündlich | Neueste Meldungen
Ortszeit Temperatur Wetter
Mo, 21.10. 20:00 12.7° C bewölkt
Mo, 21.10. 14:00 14.0° C bedeckt
Mo, 21.10. 8:00 11.9° C bedeckt
Mo, 21.10. 2:00 11.8° C bedeckt
So, 20.10. 20:00 12.6° C leichter Regen
So, 20.10. 14:00 12.4° C Regen
So, 20.10. 8:00 11.1° C Sprühregen
So, 20.10. 2:00 12.1° C bedeckt
Ortszeit Temperatur Wetter
Di, 22.10. 0:30 10.5° C Nebel
Di, 22.10. 0:20 10.5° C Nebel
Di, 22.10. 0:10 10.9° C Nebel
Di, 22.10. 0:00 10.8° C wolkig
Mo, 21.10. 23:50 10.8° C wolkig
Mo, 21.10. 23:40 10.7° C Nebel
Mo, 21.10. 23:30 11.1° C Nebel
Mo, 21.10. 23:00 11.1° C Nebel
Mo, 21.10. 22:30 11.5° C Nebel
Mo, 21.10. 22:00 11.9° C Nebel
Mo, 21.10. 21:30 12.3° C bewölkt
Ortszeit Relative Feuchte Sichtweite
Mo, 21.10. 20:00 97% 2.7 km
Mo, 21.10. 14:00 91% 8 km
Mo, 21.10. 8:00 97% 6 km
Mo, 21.10. 2:00 96% 15 km
So, 20.10. 20:00 96% 7 km
So, 20.10. 14:00 96% 12 km
So, 20.10. 8:00 95% 30 km
So, 20.10. 2:00 92% 45 km
Ortszeit Relative Feuchte Sichtweite
Di, 22.10. 0:30 99% 0.3 km
Di, 22.10. 0:20 99% -
Di, 22.10. 0:10 99% -
Di, 22.10. 0:00 98% 1.4 km
Mo, 21.10. 23:50 98% -
Mo, 21.10. 23:40 99% -
Mo, 21.10. 23:30 99% 0.4 km
Mo, 21.10. 23:00 99% 0.2 km
Mo, 21.10. 22:30 98% 0.2 km
Mo, 21.10. 22:00 99% 0.4 km
Mo, 21.10. 21:30 99% 1.2 km
Ortszeit Niederschlagsmenge Niederschlagsart
Mo, 21.10. 20:00 0.1 l/m2 in 12 Std. Regen
Mo, 21.10. 14:00 0.1 l/m2 in 6 Std. Regen
Mo, 21.10. 8:00 2 l/m2 in 12 Std. Regen
Mo, 21.10. 2:00 2 l/m2 in 6 Std. Regen
So, 20.10. 20:00 2 l/m2 in 12 Std. Regen
So, 20.10. 14:00 0.8 l/m2 in 6 Std. Regen
So, 20.10. 8:00 0.1 l/m2 in 12 Std. Regen
So, 20.10. 2:00 0.1 l/m2 in 6 Std. Regen
Ortszeit Niederschlagsmenge Niederschlagsart
Di, 22.10. 0:30 0.0 l/m2 in 1 Std. -
Di, 22.10. 0:20 keine Meldung -
Di, 22.10. 0:10 keine Meldung -
Di, 22.10. 0:00 0.0 l/m2 in 1 Std. -
Mo, 21.10. 23:50 keine Meldung -
Mo, 21.10. 23:40 keine Meldung -
Mo, 21.10. 23:30 0.0 l/m2 in 1 Std. -
Mo, 21.10. 23:00 0.0 l/m2 in 1 Std. -
Mo, 21.10. 22:30 0.0 l/m2 in 1 Std. -
Mo, 21.10. 22:00 0.0 l/m2 in 1 Std. -
Mo, 21.10. 21:30 0.0 l/m2 in 1 Std. -
Ortszeit Stärke Spitze Richtung
km/h Bft. km/h Grad Sektor
Mo, 21.10. 20:00 4 1 14 140° SO
Mo, 21.10. 14:00 7 2 18 160° S
Mo, 21.10. 8:00 7 2 36 60° NO
Mo, 21.10. 2:00 7 2 25 40° NO
So, 20.10. 20:00 9 2 20 20° N
So, 20.10. 14:00 4 1 7 110° O
So, 20.10. 8:00 0 0 14 - -
So, 20.10. 2:00 6 1 22 150° SO
Ortszeit Stärke Spitze Richtung
km/h Bft. km/h Grad Sektor
Di, 22.10. 0:30 6 1 9 130° SO
Di, 22.10. 0:20 6 1 - 130° SO
Di, 22.10. 0:10 6 1 - 130° SO
Di, 22.10. 0:00 6 1 7 120° SO
Mo, 21.10. 23:50 6 1 - 120° SO
Mo, 21.10. 23:40 4 1 - 130° SO
Mo, 21.10. 23:30 6 1 7 120° SO
Mo, 21.10. 23:00 4 1 7 110° O
Mo, 21.10. 22:30 4 1 4 120° SO
Mo, 21.10. 22:00 4 1 7 110° O
Mo, 21.10. 21:30 6 1 7 130° SO
Ortszeit Untergrenze Bedeckung Gattung
total tief tief mittel hoch
Mo, 21.10. 20:00 630 m 8/8 6/8 - - -
Mo, 21.10. 14:00 180 m 8/8 8/8 - - -
Mo, 21.10. 8:00 60 m 8/8 8/8 - - -
Mo, 21.10. 2:00 120 m 8/8 8/8 - - -
So, 20.10. 20:00 90 m 8/8 8/8 - - -
So, 20.10. 14:00 60 m 8/8 8/8 - - -
So, 20.10. 8:00 1500 m 8/8 8/8 - - -
So, 20.10. 2:00 2400 m 8/8 8/8 - - -
Ortszeit Bedeckungsgrad in Achtel und Wolkenuntergrenze
Di, 22.10. 0:30 7(<30m)
Di, 22.10. 0:20 7(<30m)
Di, 22.10. 0:10 7(<30m)
Di, 22.10. 0:00 6(<30m)
Mo, 21.10. 23:50 6(<30m)
Mo, 21.10. 23:40 4(<30m)
Mo, 21.10. 23:30 keine Wolken
Mo, 21.10. 23:00 keine Wolken
Mo, 21.10. 22:30 keine Wolken
Mo, 21.10. 22:00 6(4500m)
Mo, 21.10. 21:30 7(4200m)
Ortszeit Luftdruck NN (hPa) Tendenz (hPa in 3 Std.)
Mo, 21.10. 20:00 1020 + 1,9
Mo, 21.10. 14:00 1018 + 1,2
Mo, 21.10. 8:00 1015 + 1,0
Mo, 21.10. 2:00 1013 + 0,6
So, 20.10. 20:00 1013 + 1,3
So, 20.10. 14:00 1011 + 0,2
So, 20.10. 8:00 1010 + 1,3
So, 20.10. 2:00 1008 + 0,2
Ortszeit Luftdruck NN (hPa) Tendenz (hPa in 3 Std.)
Di, 22.10. 0:30 1020 0,0
Di, 22.10. 0:20 1020 keine Meldung
Di, 22.10. 0:10 1020 keine Meldung
Di, 22.10. 0:00 1020 + 0,1
Mo, 21.10. 23:50 1020 keine Meldung
Mo, 21.10. 23:40 1020 keine Meldung
Mo, 21.10. 23:30 1020 + 0,2
Mo, 21.10. 23:00 1020 + 0,1
Mo, 21.10. 22:30 1020 + 0,3
Mo, 21.10. 22:00 1020 + 0,6
Mo, 21.10. 21:30 1020 + 1,5
Ortszeit Schneehöhe (cm)
Mo, 21.10. 20:00 0
Mo, 21.10. 14:00 0
Mo, 21.10. 8:00 0
Mo, 21.10. 2:00 0
So, 20.10. 20:00 0
So, 20.10. 14:00 0
So, 20.10. 8:00 0
So, 20.10. 2:00 0
Ortszeit Schneehöhe (cm)
Di, 22.10. 0:30 0
Di, 22.10. 0:20 0
Di, 22.10. 0:10 0
Di, 22.10. 0:00 0
Mo, 21.10. 23:50 0
Mo, 21.10. 23:40 0
Mo, 21.10. 23:30 0
Mo, 21.10. 23:00 0
Mo, 21.10. 22:30 0
Mo, 21.10. 22:00 0
Mo, 21.10. 21:30 0
Link zu dieser Seite / Seite empfehlen

Das Wetter in ...